sensor_id;sensor_type;location;lat;lon;timestamp;P1;durP1;ratioP1;P2;durP2;ratioP2
32748;SDS011;19119;52.474;13.710;2023-08-01T00:01:27;5.85;;;4.10;;
32748;SDS011;19119;52.474;13.710;2023-08-01T00:03:53;8.98;;;3.60;;
32748;SDS011;19119;52.474;13.710;2023-08-01T00:06:19;6.28;;;3.50;;
32748;SDS011;19119;52.474;13.710;2023-08-01T00:08:45;6.38;;;3.53;;
32748;SDS011;19119;52.474;13.710;2023-08-01T00:11:11;6.95;;;3.70;;
32748;SDS011;19119;52.474;13.710;2023-08-01T00:13:39;6.32;;;3.50;;
32748;SDS011;19119;52.474;13.710;2023-08-01T00:16:05;10.43;;;3.45;;
32748;SDS011;19119;52.474;13.710;2023-08-01T00:18:30;10.00;;;3.50;;
32748;SDS011;19119;52.474;13.710;2023-08-01T00:20:56;8.45;;;3.17;;
32748;SDS011;19119;52.474;13.710;2023-08-01T00:23:21;8.80;;;3.88;;
32748;SDS011;19119;52.474;13.710;2023-08-01T00:25:47;8.68;;;3.30;;
32748;SDS011;19119;52.474;13.710;2023-08-01T00:28:23;7.80;;;3.50;;
32748;SDS011;19119;52.474;13.710;2023-08-01T00:33:14;5.88;;;3.20;;
32748;SDS011;19119;52.474;13.710;2023-08-01T00:35:40;6.82;;;2.83;;
32748;SDS011;19119;52.474;13.710;2023-08-01T00:38:05;8.00;;;3.60;;
32748;SDS011;19119;52.474;13.710;2023-08-01T00:40:31;7.20;;;2.97;;
32748;SDS011;19119;52.474;13.710;2023-08-01T00:42:57;8.40;;;3.30;;
32748;SDS011;19119;52.474;13.710;2023-08-01T00:45:23;4.20;;;2.67;;
32748;SDS011;19119;52.474;13.710;2023-08-01T00:47:50;7.43;;;2.90;;
32748;SDS011;19119;52.474;13.710;2023-08-01T00:50:16;5.00;;;3.00;;
32748;SDS011;19119;52.474;13.710;2023-08-01T00:52:45;8.23;;;3.30;;
32748;SDS011;19119;52.474;13.710;2023-08-01T00:55:11;5.70;;;3.15;;
32748;SDS011;19119;52.474;13.710;2023-08-01T00:57:37;6.07;;;3.08;;
32748;SDS011;19119;52.474;13.710;2023-08-01T01:00:02;8.05;;;3.20;;
32748;SDS011;19119;52.474;13.710;2023-08-01T01:02:28;5.80;;;3.17;;
32748;SDS011;19119;52.474;13.710;2023-08-01T01:04:55;4.85;;;2.90;;
32748;SDS011;19119;52.474;13.710;2023-08-01T01:07:20;6.50;;;3.20;;
32748;SDS011;19119;52.474;13.710;2023-08-01T01:09:50;5.95;;;2.80;;
32748;SDS011;19119;52.474;13.710;2023-08-01T01:12:15;6.97;;;3.00;;
32748;SDS011;19119;52.474;13.710;2023-08-01T01:14:41;8.35;;;2.70;;
32748;SDS011;19119;52.474;13.710;2023-08-01T01:17:06;7.50;;;2.85;;
32748;SDS011;19119;52.474;13.710;2023-08-01T01:19:32;4.78;;;2.63;;
32748;SDS011;19119;52.474;13.710;2023-08-01T01:21:58;5.85;;;2.55;;
32748;SDS011;19119;52.474;13.710;2023-08-01T01:24:23;4.47;;;2.75;;
32748;SDS011;19119;52.474;13.710;2023-08-01T01:26:50;8.55;;;3.30;;
32748;SDS011;19119;52.474;13.710;2023-08-01T01:29:18;6.18;;;3.03;;
32748;SDS011;19119;52.474;13.710;2023-08-01T01:31:45;5.47;;;2.83;;
32748;SDS011;19119;52.474;13.710;2023-08-01T01:34:13;5.13;;;3.17;;
32748;SDS011;19119;52.474;13.710;2023-08-01T01:36:38;4.10;;;3.08;;
32748;SDS011;19119;52.474;13.710;2023-08-01T01:39:04;6.28;;;3.17;;
32748;SDS011;19119;52.474;13.710;2023-08-01T01:41:30;6.78;;;3.50;;
32748;SDS011;19119;52.474;13.710;2023-08-01T01:43:56;6.75;;;3.60;;
32748;SDS011;19119;52.474;13.710;2023-08-01T01:46:21;5.93;;;2.80;;
32748;SDS011;19119;52.474;13.710;2023-08-01T01:48:47;9.02;;;3.30;;
32748;SDS011;19119;52.474;13.710;2023-08-01T01:51:13;7.15;;;3.42;;
32748;SDS011;19119;52.474;13.710;2023-08-01T01:53:38;7.45;;;3.45;;
32748;SDS011;19119;52.474;13.710;2023-08-01T01:56:04;8.80;;;3.47;;
32748;SDS011;19119;52.474;13.710;2023-08-01T01:58:29;7.07;;;3.50;;
32748;SDS011;19119;52.474;13.710;2023-08-01T02:00:55;8.90;;;3.65;;
32748;SDS011;19119;52.474;13.710;2023-08-01T02:03:20;8.90;;;4.35;;
32748;SDS011;19119;52.474;13.710;2023-08-01T02:05:46;8.23;;;3.20;;
32748;SDS011;19119;52.474;13.710;2023-08-01T02:08:11;7.70;;;4.05;;
32748;SDS011;19119;52.474;13.710;2023-08-01T02:10:38;6.22;;;3.60;;
32748;SDS011;19119;52.474;13.710;2023-08-01T02:13:03;6.55;;;3.40;;
32748;SDS011;19119;52.474;13.710;2023-08-01T02:15:29;6.90;;;4.07;;
32748;SDS011;19119;52.474;13.710;2023-08-01T02:17:54;8.52;;;4.07;;
32748;SDS011;19119;52.474;13.710;2023-08-01T02:20:20;8.73;;;4.65;;
32748;SDS011;19119;52.474;13.710;2023-08-01T02:22:46;8.32;;;4.43;;
32748;SDS011;19119;52.474;13.710;2023-08-01T02:25:13;7.28;;;3.65;;
32748;SDS011;19119;52.474;13.710;2023-08-01T02:27:38;9.27;;;4.10;;
32748;SDS011;19119;52.474;13.710;2023-08-01T02:30:04;7.25;;;4.72;;
32748;SDS011;19119;52.474;13.710;2023-08-01T02:32:30;7.00;;;4.25;;
32748;SDS011;19119;52.474;13.710;2023-08-01T02:34:56;9.93;;;5.28;;
32748;SDS011;19119;52.474;13.710;2023-08-01T02:37:21;8.18;;;3.85;;
32748;SDS011;19119;52.474;13.710;2023-08-01T02:39:47;7.68;;;3.75;;
32748;SDS011;19119;52.474;13.710;2023-08-01T02:42:12;7.95;;;4.18;;
32748;SDS011;19119;52.474;13.710;2023-08-01T02:44:38;6.68;;;3.92;;
32748;SDS011;19119;52.474;13.710;2023-08-01T02:47:03;10.05;;;3.85;;
32748;SDS011;19119;52.474;13.710;2023-08-01T02:49:29;8.73;;;4.40;;
32748;SDS011;19119;52.474;13.710;2023-08-01T02:51:55;6.75;;;4.25;;
32748;SDS011;19119;52.474;13.710;2023-08-01T02:54:21;7.35;;;4.15;;
32748;SDS011;19119;52.474;13.710;2023-08-01T02:56:46;6.78;;;3.90;;
32748;SDS011;19119;52.474;13.710;2023-08-01T02:59:12;8.57;;;4.07;;
32748;SDS011;19119;52.474;13.710;2023-08-01T03:01:38;8.60;;;4.07;;
32748;SDS011;19119;52.474;13.710;2023-08-01T03:04:04;9.82;;;3.90;;
32748;SDS011;19119;52.474;13.710;2023-08-01T03:06:32;8.68;;;4.25;;
32748;SDS011;19119;52.474;13.710;2023-08-01T03:08:58;12.25;;;3.85;;
32748;SDS011;19119;52.474;13.710;2023-08-01T03:11:23;9.63;;;4.57;;
32748;SDS011;19119;52.474;13.710;2023-08-01T03:13:49;7.47;;;4.20;;
32748;SDS011;19119;52.474;13.710;2023-08-01T03:16:15;6.20;;;3.53;;
32748;SDS011;19119;52.474;13.710;2023-08-01T03:18:41;5.88;;;4.07;;
32748;SDS011;19119;52.474;13.710;2023-08-01T03:21:06;9.07;;;4.78;;
32748;SDS011;19119;52.474;13.710;2023-08-01T03:23:32;8.68;;;3.92;;
32748;SDS011;19119;52.474;13.710;2023-08-01T03:25:58;8.00;;;3.75;;
32748;SDS011;19119;52.474;13.710;2023-08-01T03:28:24;9.77;;;3.67;;
32748;SDS011;19119;52.474;13.710;2023-08-01T03:30:51;7.88;;;4.20;;
32748;SDS011;19119;52.474;13.710;2023-08-01T03:33:18;8.75;;;3.70;;
32748;SDS011;19119;52.474;13.710;2023-08-01T03:35:47;7.90;;;4.22;;
32748;SDS011;19119;52.474;13.710;2023-08-01T03:38:12;8.10;;;4.30;;
32748;SDS011;19119;52.474;13.710;2023-08-01T03:40:38;6.35;;;3.45;;
32748;SDS011;19119;52.474;13.710;2023-08-01T03:43:05;8.75;;;3.75;;
32748;SDS011;19119;52.474;13.710;2023-08-01T03:45:31;7.50;;;3.88;;
32748;SDS011;19119;52.474;13.710;2023-08-01T03:47:56;8.38;;;2.95;;
32748;SDS011;19119;52.474;13.710;2023-08-01T03:50:22;6.25;;;2.88;;
32748;SDS011;19119;52.474;13.710;2023-08-01T03:52:48;7.50;;;4.07;;
32748;SDS011;19119;52.474;13.710;2023-08-01T03:55:13;9.00;;;4.05;;
32748;SDS011;19119;52.474;13.710;2023-08-01T03:57:39;5.03;;;3.17;;
32748;SDS011;19119;52.474;13.710;2023-08-01T04:00:05;9.63;;;3.67;;
32748;SDS011;19119;52.474;13.710;2023-08-01T04:02:38;8.52;;;3.35;;
32748;SDS011;19119;52.474;13.710;2023-08-01T04:05:05;5.10;;;3.00;;
32748;SDS011;19119;52.474;13.710;2023-08-01T04:07:30;6.65;;;3.50;;
32748;SDS011;19119;52.474;13.710;2023-08-01T04:09:56;5.32;;;3.50;;
32748;SDS011;19119;52.474;13.710;2023-08-01T04:12:23;7.75;;;3.28;;
32748;SDS011;19119;52.474;13.710;2023-08-01T04:14:48;6.95;;;3.47;;
32748;SDS011;19119;52.474;13.710;2023-08-01T04:17:14;4.97;;;3.40;;
32748;SDS011;19119;52.474;13.710;2023-08-01T04:19:39;8.40;;;3.42;;
32748;SDS011;19119;52.474;13.710;2023-08-01T04:22:05;6.35;;;3.30;;
32748;SDS011;19119;52.474;13.710;2023-08-01T04:24:30;5.43;;;3.38;;
32748;SDS011;19119;52.474;13.710;2023-08-01T04:26:56;6.88;;;3.40;;
32748;SDS011;19119;52.474;13.710;2023-08-01T04:29:22;6.53;;;2.97;;
32748;SDS011;19119;52.474;13.710;2023-08-01T04:31:47;5.03;;;3.17;;
32748;SDS011;19119;52.474;13.710;2023-08-01T04:34:13;5.03;;;3.40;;
32748;SDS011;19119;52.474;13.710;2023-08-01T04:36:38;8.57;;;3.60;;
32748;SDS011;19119;52.474;13.710;2023-08-01T04:39:04;6.30;;;3.67;;
32748;SDS011;19119;52.474;13.710;2023-08-01T04:41:30;7.40;;;3.42;;
32748;SDS011;19119;52.474;13.710;2023-08-01T04:43:56;6.38;;;3.25;;
32748;SDS011;19119;52.474;13.710;2023-08-01T04:46:21;6.40;;;3.28;;
32748;SDS011;19119;52.474;13.710;2023-08-01T04:48:47;6.18;;;2.85;;
32748;SDS011;19119;52.474;13.710;2023-08-01T04:51:12;4.40;;;3.05;;
32748;SDS011;19119;52.474;13.710;2023-08-01T04:53:37;5.30;;;2.72;;
32748;SDS011;19119;52.474;13.710;2023-08-01T04:56:05;8.93;;;3.53;;
32748;SDS011;19119;52.474;13.710;2023-08-01T04:58:31;5.40;;;2.53;;
32748;SDS011;19119;52.474;13.710;2023-08-01T05:00:56;6.57;;;3.05;;
32748;SDS011;19119;52.474;13.710;2023-08-01T05:03:22;5.28;;;2.88;;
32748;SDS011;19119;52.474;13.710;2023-08-01T05:05:47;5.32;;;3.00;;
32748;SDS011;19119;52.474;13.710;2023-08-01T05:08:13;4.15;;;2.60;;
32748;SDS011;19119;52.474;13.710;2023-08-01T05:10:38;6.97;;;3.72;;
32748;SDS011;19119;52.474;13.710;2023-08-01T05:13:04;4.72;;;3.17;;
32748;SDS011;19119;52.474;13.710;2023-08-01T05:15:29;5.82;;;3.08;;
32748;SDS011;19119;52.474;13.710;2023-08-01T05:17:54;6.50;;;2.83;;
32748;SDS011;19119;52.474;13.710;2023-08-01T05:20:20;5.20;;;2.50;;
32748;SDS011;19119;52.474;13.710;2023-08-01T05:22:46;6.03;;;3.25;;
32748;SDS011;19119;52.474;13.710;2023-08-01T05:25:12;6.28;;;2.97;;
32748;SDS011;19119;52.474;13.710;2023-08-01T05:27:37;5.70;;;2.78;;
32748;SDS011;19119;52.474;13.710;2023-08-01T05:30:03;5.38;;;2.75;;
32748;SDS011;19119;52.474;13.710;2023-08-01T05:32:28;6.43;;;2.63;;
32748;SDS011;19119;52.474;13.710;2023-08-01T05:34:55;3.80;;;2.55;;
32748;SDS011;19119;52.474;13.710;2023-08-01T05:37:20;4.32;;;2.53;;
32748;SDS011;19119;52.474;13.710;2023-08-01T05:39:46;5.50;;;2.30;;
32748;SDS011;19119;52.474;13.710;2023-08-01T05:42:12;5.38;;;2.30;;
32748;SDS011;19119;52.474;13.710;2023-08-01T05:44:38;4.80;;;3.35;;
32748;SDS011;19119;52.474;13.710;2023-08-01T05:47:05;6.03;;;3.00;;
32748;SDS011;19119;52.474;13.710;2023-08-01T05:49:30;5.35;;;2.70;;
32748;SDS011;19119;52.474;13.710;2023-08-01T05:51:56;6.03;;;3.00;;
32748;SDS011;19119;52.474;13.710;2023-08-01T05:54:22;7.28;;;2.60;;
32748;SDS011;19119;52.474;13.710;2023-08-01T05:56:47;6.57;;;2.70;;
32748;SDS011;19119;52.474;13.710;2023-08-01T05:59:13;4.93;;;3.13;;
32748;SDS011;19119;52.474;13.710;2023-08-01T06:01:38;7.93;;;3.10;;
32748;SDS011;19119;52.474;13.710;2023-08-01T06:04:04;5.32;;;2.63;;
32748;SDS011;19119;52.474;13.710;2023-08-01T06:06:30;4.22;;;2.63;;
32748;SDS011;19119;52.474;13.710;2023-08-01T06:08:56;5.05;;;2.90;;
32748;SDS011;19119;52.474;13.710;2023-08-01T06:11:21;4.30;;;2.70;;
32748;SDS011;19119;52.474;13.710;2023-08-01T06:13:47;4.50;;;2.60;;
32748;SDS011;19119;52.474;13.710;2023-08-01T06:16:12;5.47;;;2.70;;
32748;SDS011;19119;52.474;13.710;2023-08-01T06:18:39;5.35;;;3.03;;
32748;SDS011;19119;52.474;13.710;2023-08-01T06:21:05;6.05;;;2.90;;
32748;SDS011;19119;52.474;13.710;2023-08-01T06:23:30;4.88;;;2.80;;
32748;SDS011;19119;52.474;13.710;2023-08-01T06:25:56;4.20;;;2.88;;
32748;SDS011;19119;52.474;13.710;2023-08-01T06:28:22;5.65;;;2.60;;
32748;SDS011;19119;52.474;13.710;2023-08-01T06:30:48;3.67;;;2.60;;
32748;SDS011;19119;52.474;13.710;2023-08-01T06:33:13;6.38;;;2.60;;
32748;SDS011;19119;52.474;13.710;2023-08-01T06:35:39;5.40;;;2.70;;
32748;SDS011;19119;52.474;13.710;2023-08-01T06:38:04;4.15;;;2.38;;
32748;SDS011;19119;52.474;13.710;2023-08-01T06:40:29;4.40;;;2.88;;
32748;SDS011;19119;52.474;13.710;2023-08-01T06:42:55;4.78;;;2.33;;
32748;SDS011;19119;52.474;13.710;2023-08-01T06:45:20;5.32;;;2.65;;
32748;SDS011;19119;52.474;13.710;2023-08-01T06:47:46;4.25;;;2.50;;
32748;SDS011;19119;52.474;13.710;2023-08-01T06:50:11;6.50;;;2.88;;
32748;SDS011;19119;52.474;13.710;2023-08-01T06:52:38;4.85;;;2.58;;
32748;SDS011;19119;52.474;13.710;2023-08-01T06:55:06;5.72;;;2.60;;
32748;SDS011;19119;52.474;13.710;2023-08-01T06:57:33;5.18;;;2.78;;
32748;SDS011;19119;52.474;13.710;2023-08-01T06:59:59;5.38;;;2.60;;
32748;SDS011;19119;52.474;13.710;2023-08-01T07:02:26;6.18;;;2.72;;
32748;SDS011;19119;52.474;13.710;2023-08-01T07:04:52;4.85;;;2.80;;
32748;SDS011;19119;52.474;13.710;2023-08-01T07:07:17;4.97;;;2.30;;
32748;SDS011;19119;52.474;13.710;2023-08-01T07:09:42;3.72;;;2.28;;
32748;SDS011;19119;52.474;13.710;2023-08-01T07:12:08;5.22;;;2.75;;
32748;SDS011;19119;52.474;13.710;2023-08-01T07:14:35;3.17;;;2.30;;
32748;SDS011;19119;52.474;13.710;2023-08-01T07:17:00;3.42;;;2.17;;
32748;SDS011;19119;52.474;13.710;2023-08-01T07:19:26;5.07;;;2.40;;
32748;SDS011;19119;52.474;13.710;2023-08-01T07:21:51;4.18;;;2.13;;
32748;SDS011;19119;52.474;13.710;2023-08-01T07:24:17;4.00;;;2.38;;
32748;SDS011;19119;52.474;13.710;2023-08-01T07:26:42;6.20;;;2.90;;
32748;SDS011;19119;52.474;13.710;2023-08-01T07:29:08;6.93;;;3.22;;
32748;SDS011;19119;52.474;13.710;2023-08-01T07:31:35;3.17;;;2.10;;
32748;SDS011;19119;52.474;13.710;2023-08-01T07:34:01;4.32;;;2.60;;
32748;SDS011;19119;52.474;13.710;2023-08-01T07:36:26;4.53;;;2.33;;
32748;SDS011;19119;52.474;13.710;2023-08-01T07:38:53;3.97;;;2.20;;
32748;SDS011;19119;52.474;13.710;2023-08-01T07:41:19;3.78;;;2.58;;
32748;SDS011;19119;52.474;13.710;2023-08-01T07:43:45;4.63;;;2.67;;
32748;SDS011;19119;52.474;13.710;2023-08-01T07:46:11;4.15;;;2.10;;
32748;SDS011;19119;52.474;13.710;2023-08-01T07:48:36;5.30;;;2.70;;
32748;SDS011;19119;52.474;13.710;2023-08-01T07:51:03;3.97;;;2.45;;
32748;SDS011;19119;52.474;13.710;2023-08-01T07:53:31;5.68;;;2.20;;
32748;SDS011;19119;52.474;13.710;2023-08-01T07:55:57;5.80;;;2.58;;
32748;SDS011;19119;52.474;13.710;2023-08-01T07:58:22;3.42;;;2.13;;
32748;SDS011;19119;52.474;13.710;2023-08-01T08:00:48;4.10;;;2.28;;
32748;SDS011;19119;52.474;13.710;2023-08-01T08:03:13;3.60;;;2.00;;
32748;SDS011;19119;52.474;13.710;2023-08-01T08:05:39;4.53;;;2.40;;
32748;SDS011;19119;52.474;13.710;2023-08-01T08:08:05;2.97;;;1.90;;
32748;SDS011;19119;52.474;13.710;2023-08-01T08:10:31;3.88;;;1.98;;
32748;SDS011;19119;52.474;13.710;2023-08-01T08:12:58;5.50;;;2.40;;
32748;SDS011;19119;52.474;13.710;2023-08-01T08:15:23;3.95;;;2.25;;
32748;SDS011;19119;52.474;13.710;2023-08-01T08:17:50;3.65;;;2.00;;
32748;SDS011;19119;52.474;13.710;2023-08-01T08:20:16;3.80;;;1.80;;
32748;SDS011;19119;52.474;13.710;2023-08-01T08:22:42;3.60;;;1.80;;
32748;SDS011;19119;52.474;13.710;2023-08-01T08:25:07;3.80;;;1.95;;
32748;SDS011;19119;52.474;13.710;2023-08-01T08:27:33;2.85;;;1.70;;
32748;SDS011;19119;52.474;13.710;2023-08-01T08:29:59;4.35;;;2.30;;
32748;SDS011;19119;52.474;13.710;2023-08-01T08:32:26;4.07;;;2.42;;
32748;SDS011;19119;52.474;13.710;2023-08-01T08:34:52;3.78;;;2.10;;
32748;SDS011;19119;52.474;13.710;2023-08-01T08:37:17;2.35;;;1.40;;
32748;SDS011;19119;52.474;13.710;2023-08-01T08:39:43;4.43;;;1.88;;
32748;SDS011;19119;52.474;13.710;2023-08-01T08:42:09;3.40;;;1.60;;
32748;SDS011;19119;52.474;13.710;2023-08-01T08:44:39;4.28;;;1.80;;
32748;SDS011;19119;52.474;13.710;2023-08-01T08:47:08;2.78;;;1.70;;
32748;SDS011;19119;52.474;13.710;2023-08-01T08:49:38;2.33;;;1.60;;
32748;SDS011;19119;52.474;13.710;2023-08-01T08:52:05;3.85;;;2.05;;
32748;SDS011;19119;52.474;13.710;2023-08-01T08:54:31;3.00;;;1.30;;
32748;SDS011;19119;52.474;13.710;2023-08-01T08:56:57;2.45;;;1.63;;
32748;SDS011;19119;52.474;13.710;2023-08-01T08:59:24;3.35;;;1.27;;
32748;SDS011;19119;52.474;13.710;2023-08-01T09:01:51;2.42;;;1.40;;
32748;SDS011;19119;52.474;13.710;2023-08-01T09:04:17;3.00;;;1.45;;
32748;SDS011;19119;52.474;13.710;2023-08-01T09:06:46;5.22;;;1.40;;
32748;SDS011;19119;52.474;13.710;2023-08-01T09:09:14;3.03;;;1.60;;
32748;SDS011;19119;52.474;13.710;2023-08-01T09:11:41;3.15;;;1.30;;
32748;SDS011;19119;52.474;13.710;2023-08-01T09:14:09;2.67;;;1.05;;
32748;SDS011;19119;52.474;13.710;2023-08-01T09:16:36;2.95;;;1.40;;
32748;SDS011;19119;52.474;13.710;2023-08-01T09:19:02;3.83;;;1.65;;
32748;SDS011;19119;52.474;13.710;2023-08-01T09:21:33;2.55;;;1.60;;
32748;SDS011;19119;52.474;13.710;2023-08-01T09:24:09;1.70;;;1.20;;
32748;SDS011;19119;52.474;13.710;2023-08-01T09:26:39;2.58;;;1.65;;
32748;SDS011;19119;52.474;13.710;2023-08-01T09:29:05;1.92;;;1.40;;
32748;SDS011;19119;52.474;13.710;2023-08-01T09:31:38;2.88;;;1.38;;
32748;SDS011;19119;52.474;13.710;2023-08-01T09:34:17;3.78;;;1.27;;
32748;SDS011;19119;52.474;13.710;2023-08-01T09:36:43;2.95;;;1.70;;
32748;SDS011;19119;52.474;13.710;2023-08-01T09:39:09;1.80;;;1.10;;
32748;SDS011;19119;52.474;13.710;2023-08-01T09:41:44;1.45;;;1.05;;
32748;SDS011;19119;52.474;13.710;2023-08-01T09:44:11;1.92;;;1.35;;
32748;SDS011;19119;52.474;13.710;2023-08-01T09:46:37;2.35;;;0.80;;
32748;SDS011;19119;52.474;13.710;2023-08-01T09:49:06;1.70;;;1.00;;
32748;SDS011;19119;52.474;13.710;2023-08-01T09:51:33;1.60;;;1.00;;
32748;SDS011;19119;52.474;13.710;2023-08-01T09:56:25;1.27;;;0.88;;
32748;SDS011;19119;52.474;13.710;2023-08-01T09:58:52;3.83;;;1.25;;
32748;SDS011;19119;52.474;13.710;2023-08-01T10:01:21;3.70;;;2.05;;
32748;SDS011;19119;52.474;13.710;2023-08-01T10:03:53;3.75;;;1.98;;
32748;SDS011;19119;52.474;13.710;2023-08-01T10:06:20;1.88;;;0.90;;
32748;SDS011;19119;52.474;13.710;2023-08-01T10:08:47;1.17;;;0.70;;
32748;SDS011;19119;52.474;13.710;2023-08-01T10:11:14;3.28;;;1.55;;
32748;SDS011;19119;52.474;13.710;2023-08-01T10:13:42;0.98;;;0.60;;
32748;SDS011;19119;52.474;13.710;2023-08-01T10:16:08;3.40;;;1.10;;
32748;SDS011;19119;52.474;13.710;2023-08-01T10:18:36;1.52;;;0.85;;
32748;SDS011;19119;52.474;13.710;2023-08-01T10:21:07;1.80;;;0.57;;
32748;SDS011;19119;52.474;13.710;2023-08-01T10:23:34;1.58;;;0.70;;
32748;SDS011;19119;52.474;13.710;2023-08-01T10:26:03;0.80;;;0.52;;
32748;SDS011;19119;52.474;13.710;2023-08-01T10:28:31;3.10;;;0.68;;
32748;SDS011;19119;52.474;13.710;2023-08-01T10:31:07;2.83;;;0.63;;
32748;SDS011;19119;52.474;13.710;2023-08-01T10:33:41;0.85;;;0.50;;
32748;SDS011;19119;52.474;13.710;2023-08-01T10:36:22;2.10;;;1.70;;
32748;SDS011;19119;52.474;13.710;2023-08-01T10:38:49;1.27;;;0.63;;
32748;SDS011;19119;52.474;13.710;2023-08-01T10:41:18;2.60;;;1.10;;
32748;SDS011;19119;52.474;13.710;2023-08-01T10:43:45;10.48;;;6.47;;
32748;SDS011;19119;52.474;13.710;2023-08-01T10:46:10;15.57;;;10.57;;
32748;SDS011;19119;52.474;13.710;2023-08-01T10:48:47;6.53;;;4.03;;
32748;SDS011;19119;52.474;13.710;2023-08-01T10:51:16;6.53;;;3.65;;
32748;SDS011;19119;52.474;13.710;2023-08-01T10:53:42;10.32;;;5.20;;
32748;SDS011;19119;52.474;13.710;2023-08-01T10:56:07;21.25;;;10.02;;
32748;SDS011;19119;52.474;13.710;2023-08-01T10:58:33;7.20;;;3.65;;
32748;SDS011;19119;52.474;13.710;2023-08-01T11:00:59;4.00;;;1.85;;
32748;SDS011;19119;52.474;13.710;2023-08-01T11:03:38;9.80;;;3.88;;
32748;SDS011;19119;52.474;13.710;2023-08-01T11:06:05;6.60;;;3.30;;
32748;SDS011;19119;52.474;13.710;2023-08-01T11:08:37;5.38;;;2.35;;
32748;SDS011;19119;52.474;13.710;2023-08-01T11:11:08;7.43;;;2.70;;
32748;SDS011;19119;52.474;13.710;2023-08-01T11:13:38;4.43;;;2.25;;
32748;SDS011;19119;52.474;13.710;2023-08-01T11:16:04;3.55;;;1.75;;
32748;SDS011;19119;52.474;13.710;2023-08-01T11:18:39;1.10;;;0.52;;
32748;SDS011;19119;52.474;13.710;2023-08-01T11:21:08;1.20;;;0.73;;
32748;SDS011;19119;52.474;13.710;2023-08-01T11:23:34;1.13;;;0.47;;
32748;SDS011;19119;52.474;13.710;2023-08-01T11:26:01;1.13;;;0.60;;
32748;SDS011;19119;52.474;13.710;2023-08-01T11:30:59;1.20;;;0.60;;
32748;SDS011;19119;52.474;13.710;2023-08-01T11:33:24;0.95;;;0.50;;
32748;SDS011;19119;52.474;13.710;2023-08-01T11:35:51;3.17;;;0.52;;
32748;SDS011;19119;52.474;13.710;2023-08-01T11:38:28;0.75;;;0.50;;
32748;SDS011;19119;52.474;13.710;2023-08-01T11:40:55;0.80;;;0.40;;
32748;SDS011;19119;52.474;13.710;2023-08-01T11:43:25;3.03;;;0.70;;
32748;SDS011;19119;52.474;13.710;2023-08-01T11:45:54;2.35;;;0.60;;
32748;SDS011;19119;52.474;13.710;2023-08-01T11:48:21;1.45;;;0.60;;
32748;SDS011;19119;52.474;13.710;2023-08-01T11:50:48;3.35;;;0.60;;
32748;SDS011;19119;52.474;13.710;2023-08-01T11:53:18;1.13;;;0.60;;
32748;SDS011;19119;52.474;13.710;2023-08-01T11:55:47;1.10;;;0.50;;
32748;SDS011;19119;52.474;13.710;2023-08-01T11:58:14;0.85;;;0.52;;
32748;SDS011;19119;52.474;13.710;2023-08-01T12:00:39;2.17;;;0.70;;
32748;SDS011;19119;52.474;13.710;2023-08-01T12:03:09;2.28;;;0.80;;
32748;SDS011;19119;52.474;13.710;2023-08-01T12:05:39;3.10;;;1.10;;
32748;SDS011;19119;52.474;13.710;2023-08-01T12:08:11;2.75;;;0.98;;
32748;SDS011;19119;52.474;13.710;2023-08-01T12:10:38;1.45;;;1.17;;
32748;SDS011;19119;52.474;13.710;2023-08-01T12:13:06;2.28;;;1.30;;
32748;SDS011;19119;52.474;13.710;2023-08-01T12:15:31;4.53;;;1.58;;
32748;SDS011;19119;52.474;13.710;2023-08-01T12:17:57;2.75;;;1.67;;
32748;SDS011;19119;52.474;13.710;2023-08-01T12:20:22;2.63;;;1.70;;
32748;SDS011;19119;52.474;13.710;2023-08-01T12:22:47;3.20;;;1.60;;
32748;SDS011;19119;52.474;13.710;2023-08-01T12:25:13;3.90;;;1.80;;
32748;SDS011;19119;52.474;13.710;2023-08-01T12:27:38;3.00;;;1.55;;
32748;SDS011;19119;52.474;13.710;2023-08-01T12:30:04;3.13;;;1.50;;
32748;SDS011;19119;52.474;13.710;2023-08-01T12:32:30;3.47;;;2.20;;
32748;SDS011;19119;52.474;13.710;2023-08-01T12:34:55;3.53;;;1.80;;
32748;SDS011;19119;52.474;13.710;2023-08-01T12:37:21;3.10;;;1.67;;
32748;SDS011;19119;52.474;13.710;2023-08-01T12:39:46;3.40;;;2.00;;
32748;SDS011;19119;52.474;13.710;2023-08-01T12:42:12;3.47;;;1.65;;
32748;SDS011;19119;52.474;13.710;2023-08-01T12:44:39;6.90;;;2.50;;
32748;SDS011;19119;52.474;13.710;2023-08-01T12:47:04;7.40;;;1.98;;
32748;SDS011;19119;52.474;13.710;2023-08-01T12:49:33;3.72;;;2.00;;
32748;SDS011;19119;52.474;13.710;2023-08-01T12:51:59;4.00;;;2.05;;
32748;SDS011;19119;52.474;13.710;2023-08-01T12:54:27;7.78;;;2.38;;
32748;SDS011;19119;52.474;13.710;2023-08-01T12:56:53;3.80;;;2.20;;
32748;SDS011;19119;52.474;13.710;2023-08-01T12:59:19;3.45;;;2.20;;
32748;SDS011;19119;52.474;13.710;2023-08-01T13:01:45;4.47;;;2.10;;
32748;SDS011;19119;52.474;13.710;2023-08-01T13:04:10;6.55;;;1.85;;
32748;SDS011;19119;52.474;13.710;2023-08-01T13:06:36;4.07;;;2.58;;
32748;SDS011;19119;52.474;13.710;2023-08-01T13:09:02;3.00;;;2.65;;
32748;SDS011;19119;52.474;13.710;2023-08-01T13:11:28;2.50;;;2.10;;
32748;SDS011;19119;52.474;13.710;2023-08-01T13:13:53;3.80;;;1.70;;
32748;SDS011;19119;52.474;13.710;2023-08-01T13:16:20;3.65;;;1.90;;
32748;SDS011;19119;52.474;13.710;2023-08-01T13:18:46;3.90;;;2.67;;
32748;SDS011;19119;52.474;13.710;2023-08-01T13:21:13;6.47;;;2.70;;
32748;SDS011;19119;52.474;13.710;2023-08-01T13:23:38;4.95;;;2.40;;
32748;SDS011;19119;52.474;13.710;2023-08-01T13:26:04;4.55;;;2.60;;
32748;SDS011;19119;52.474;13.710;2023-08-01T13:28:30;5.70;;;2.55;;
32748;SDS011;19119;52.474;13.710;2023-08-01T13:30:55;3.95;;;2.70;;
32748;SDS011;19119;52.474;13.710;2023-08-01T13:33:21;5.60;;;2.72;;
32748;SDS011;19119;52.474;13.710;2023-08-01T13:35:46;6.93;;;2.53;;
32748;SDS011;19119;52.474;13.710;2023-08-01T13:38:16;5.63;;;1.88;;
32748;SDS011;19119;52.474;13.710;2023-08-01T13:40:42;4.22;;;2.00;;
32748;SDS011;19119;52.474;13.710;2023-08-01T13:43:08;5.53;;;2.80;;
32748;SDS011;19119;52.474;13.710;2023-08-01T13:45:34;4.95;;;2.80;;
32748;SDS011;19119;52.474;13.710;2023-08-01T13:48:00;4.75;;;2.78;;
32748;SDS011;19119;52.474;13.710;2023-08-01T13:50:25;4.53;;;1.77;;
32748;SDS011;19119;52.474;13.710;2023-08-01T13:52:54;3.85;;;2.45;;
32748;SDS011;19119;52.474;13.710;2023-08-01T13:55:19;4.88;;;2.40;;
32748;SDS011;19119;52.474;13.710;2023-08-01T13:57:45;3.80;;;2.20;;
32748;SDS011;19119;52.474;13.710;2023-08-01T14:00:10;6.15;;;2.08;;
32748;SDS011;19119;52.474;13.710;2023-08-01T14:02:36;3.88;;;1.88;;
32748;SDS011;19119;52.474;13.710;2023-08-01T14:05:02;4.32;;;1.92;;
32748;SDS011;19119;52.474;13.710;2023-08-01T14:07:27;5.85;;;2.15;;
32748;SDS011;19119;52.474;13.710;2023-08-01T14:09:53;6.07;;;2.60;;
32748;SDS011;19119;52.474;13.710;2023-08-01T14:12:18;3.90;;;2.28;;
32748;SDS011;19119;52.474;13.710;2023-08-01T14:14:44;3.97;;;2.30;;
32748;SDS011;19119;52.474;13.710;2023-08-01T14:17:09;6.32;;;1.98;;
32748;SDS011;19119;52.474;13.710;2023-08-01T14:22:21;8.23;;;2.35;;
32748;SDS011;19119;52.474;13.710;2023-08-01T14:24:47;3.75;;;2.30;;
32748;SDS011;19119;52.474;13.710;2023-08-01T14:27:13;3.63;;;2.10;;
32748;SDS011;19119;52.474;13.710;2023-08-01T14:29:39;3.83;;;2.25;;
32748;SDS011;19119;52.474;13.710;2023-08-01T14:32:05;5.85;;;2.90;;
32748;SDS011;19119;52.474;13.710;2023-08-01T14:34:31;4.53;;;2.35;;
32748;SDS011;19119;52.474;13.710;2023-08-01T14:36:56;4.35;;;2.33;;
32748;SDS011;19119;52.474;13.710;2023-08-01T14:39:22;4.07;;;2.30;;